createdAt,value
2018-01-15T00:01:58.573Z,16.90
2018-01-15T00:04:25.172Z,12.30
2018-01-15T00:06:51.775Z,13.63
2018-01-15T00:09:18.380Z,12.47
2018-01-15T00:11:44.986Z,12.20
2018-01-15T00:14:11.583Z,12.90
2018-01-15T00:16:38.186Z,12.13
2018-01-15T00:19:04.794Z,13.80
2018-01-15T00:21:31.739Z,11.93
2018-01-15T00:23:58.335Z,12.93
2018-01-15T00:26:24.931Z,12.60
2018-01-15T00:28:51.540Z,11.77
2018-01-15T00:31:18.137Z,12.30
2018-01-15T00:33:44.749Z,12.00
2018-01-15T00:36:11.367Z,12.50
2018-01-15T00:38:37.967Z,11.50
2018-01-15T00:41:04.571Z,11.60
2018-01-15T00:43:31.171Z,12.20
2018-01-15T00:45:57.799Z,11.97
2018-01-15T00:48:24.404Z,11.80
2018-01-15T00:50:51.007Z,12.47
2018-01-15T00:53:17.626Z,11.67
2018-01-15T00:55:44.598Z,11.50
2018-01-15T00:58:11.504Z,11.37
2018-01-15T01:00:38.163Z,11.50
2018-01-15T01:03:04.703Z,12.03
2018-01-15T01:05:31.347Z,11.50
2018-01-15T01:07:57.951Z,11.60
2018-01-15T01:10:24.577Z,11.40
2018-01-15T01:12:51.179Z,11.57
2018-01-15T01:15:17.784Z,11.17
2018-01-15T01:17:44.444Z,11.80
2018-01-15T01:20:11.041Z,11.53
2018-01-15T01:22:38.000Z,11.27
2018-01-15T01:25:04.602Z,11.30
2018-01-15T01:27:31.192Z,12.03
2018-01-15T01:29:57.795Z,10.83
2018-01-15T01:32:24.387Z,11.17
2018-01-15T01:34:51.107Z,10.97
2018-01-15T01:37:17.687Z,11.00
2018-01-15T01:39:44.320Z,10.90
2018-01-15T01:42:10.925Z,11.80
2018-01-15T01:44:37.521Z,11.27
2018-01-15T01:47:04.123Z,11.20
2018-01-15T01:49:30.804Z,11.90
2018-01-15T01:51:57.419Z,10.40
2018-01-15T01:54:24.016Z,11.00
2018-01-15T01:56:50.627Z,10.97
2018-01-15T01:59:17.227Z,10.73
2018-01-15T02:01:43.827Z,11.00
2018-01-15T02:04:10.472Z,11.10
2018-01-15T02:06:37.069Z,10.60
2018-01-15T02:09:03.691Z,11.07
2018-01-15T02:11:30.286Z,10.60
2018-01-15T02:13:56.904Z,12.00
2018-01-15T02:16:23.504Z,10.90
2018-01-15T02:18:50.115Z,10.70
2018-01-15T02:21:16.720Z,10.67
2018-01-15T02:23:43.323Z,10.50
2018-01-15T02:26:09.928Z,9.87
2018-01-15T02:28:36.523Z,11.27
2018-01-15T02:31:03.123Z,10.73
2018-01-15T02:33:29.732Z,11.90
2018-01-15T02:35:56.338Z,11.30
2018-01-15T02:38:22.943Z,11.00
2018-01-15T02:40:49.535Z,12.30
2018-01-15T02:43:16.151Z,11.13
2018-01-15T02:45:42.744Z,10.60
2018-01-15T02:48:09.343Z,10.63
2018-01-15T02:50:35.964Z,11.07
2018-01-15T02:53:02.570Z,10.83
2018-01-15T02:55:29.172Z,11.07
2018-01-15T02:57:55.825Z,11.17
2018-01-15T03:00:22.428Z,10.73
2018-01-15T03:02:49.039Z,11.37
2018-01-15T03:05:15.628Z,11.33
2018-01-15T03:07:42.231Z,10.90
2018-01-15T03:10:08.832Z,11.20
2018-01-15T03:12:35.429Z,11.10
2018-01-15T03:15:02.027Z,11.17
2018-01-15T03:17:28.628Z,11.20
2018-01-15T03:19:55.232Z,11.60
2018-01-15T03:22:21.840Z,11.17
2018-01-15T03:24:48.535Z,11.57
2018-01-15T03:27:15.115Z,11.20
2018-01-15T03:29:41.721Z,10.60
2018-01-15T03:32:08.317Z,11.67
2018-01-15T03:34:34.923Z,11.30
2018-01-15T03:37:01.523Z,11.43
2018-01-15T03:39:28.134Z,11.47
2018-01-15T03:41:54.740Z,11.60
2018-01-15T03:44:21.348Z,11.47
2018-01-15T03:46:47.952Z,11.27
2018-01-15T03:49:14.555Z,11.27
2018-01-15T03:51:41.160Z,11.53
2018-01-15T03:54:07.755Z,11.23
2018-01-15T03:56:34.364Z,11.10
2018-01-15T03:59:00.990Z,12.13
2018-01-15T04:01:27.607Z,11.73
2018-01-15T04:03:54.211Z,11.90
2018-01-15T04:06:20.808Z,10.80
2018-01-15T04:08:47.407Z,12.40
2018-01-15T04:11:14.008Z,10.67
2018-01-15T04:13:40.723Z,11.40
2018-01-15T04:16:07.303Z,11.67
2018-01-15T04:18:34.024Z,10.63
2018-01-15T04:21:00.615Z,11.77
2018-01-15T04:23:27.227Z,12.27
2018-01-15T04:25:53.824Z,11.93
2018-01-15T04:28:20.424Z,11.73
2018-01-15T04:30:47.036Z,11.10
2018-01-15T04:33:13.640Z,11.20
2018-01-15T04:35:40.247Z,11.10
2018-01-15T04:38:06.843Z,11.60
2018-01-15T04:40:33.448Z,11.30
2018-01-15T04:43:00.043Z,11.07
2018-01-15T04:45:26.664Z,12.37
2018-01-15T04:47:53.264Z,11.67
2018-01-15T04:50:19.887Z,12.20
2018-01-15T04:52:46.499Z,10.73
2018-01-15T04:55:13.100Z,11.77
2018-01-15T04:57:39.703Z,12.17
2018-01-15T05:00:06.299Z,11.53
2018-01-15T05:02:32.904Z,11.37
2018-01-15T05:04:59.507Z,12.40
2018-01-15T05:07:26.564Z,12.57
2018-01-15T05:09:53.169Z,11.90
2018-01-15T05:12:19.795Z,11.20
2018-01-15T05:14:46.388Z,11.80
2018-01-15T05:17:12.991Z,11.93
2018-01-15T05:19:39.599Z,12.70
2018-01-15T05:22:06.199Z,11.77
2018-01-15T05:24:32.803Z,12.57
2018-01-15T05:26:59.403Z,12.33
2018-01-15T05:29:26.057Z,11.97
2018-01-15T05:31:52.655Z,11.70
2018-01-15T05:34:19.259Z,12.43
2018-01-15T05:36:45.871Z,11.87
2018-01-15T05:39:12.467Z,11.87
2018-01-15T05:41:39.075Z,12.33
2018-01-15T05:44:05.675Z,12.67
2018-01-15T05:46:32.280Z,13.30
2018-01-15T05:48:58.879Z,12.40
2018-01-15T05:51:25.480Z,12.37
2018-01-15T05:53:52.084Z,11.80
2018-01-15T05:56:18.680Z,12.60
2018-01-15T05:58:45.299Z,11.60
2018-01-15T06:01:11.899Z,12.50
2018-01-15T06:03:38.504Z,11.93
2018-01-15T06:06:05.213Z,13.17
2018-01-15T06:08:31.803Z,12.80
2018-01-15T06:10:58.407Z,11.50
2018-01-15T06:13:25.011Z,13.17
2018-01-15T06:15:51.623Z,12.20
2018-01-15T06:18:18.227Z,12.10
2018-01-15T06:20:44.831Z,12.00
2018-01-15T06:23:11.431Z,12.20
2018-01-15T06:25:38.039Z,12.40
2018-01-15T06:28:04.639Z,13.30
2018-01-15T06:30:31.306Z,12.10
2018-01-15T06:32:57.896Z,12.40
2018-01-15T06:35:24.491Z,13.07
2018-01-15T06:37:51.096Z,13.00
2018-01-15T06:40:17.695Z,13.73
2018-01-15T06:42:44.299Z,12.67
2018-01-15T06:45:10.903Z,13.10
2018-01-15T06:47:37.503Z,12.00
2018-01-15T06:50:04.172Z,13.00
2018-01-15T06:52:30.775Z,13.10
2018-01-15T06:54:57.380Z,12.93
2018-01-15T06:57:23.971Z,11.87
2018-01-15T06:59:50.571Z,11.90
2018-01-15T07:02:17.177Z,12.70
2018-01-15T07:04:43.780Z,12.30
2018-01-15T07:07:10.376Z,13.60
2018-01-15T07:09:36.996Z,12.83
2018-01-15T07:12:03.599Z,11.73
2018-01-15T07:14:30.208Z,12.70
2018-01-15T07:16:56.807Z,13.23
2018-01-15T07:19:23.433Z,13.10
2018-01-15T07:21:50.020Z,11.87
2018-01-15T07:24:16.617Z,12.20
2018-01-15T07:26:43.243Z,12.80
2018-01-15T07:29:09.827Z,12.80
2018-01-15T07:31:36.431Z,13.80
2018-01-15T07:34:03.027Z,13.10
2018-01-15T07:36:29.640Z,12.50
2018-01-15T07:38:56.235Z,13.53
2018-01-15T07:41:22.837Z,13.00
2018-01-15T07:43:49.439Z,12.70
2018-01-15T07:46:16.047Z,12.60
2018-01-15T07:48:42.653Z,14.23
2018-01-15T07:51:09.338Z,14.00
2018-01-15T07:53:35.915Z,13.73
2018-01-15T07:56:02.516Z,13.67
2018-01-15T07:58:29.995Z,14.53
2018-01-15T08:00:56.600Z,14.13
2018-01-15T08:03:23.203Z,13.20
2018-01-15T08:05:50.111Z,13.33
2018-01-15T08:08:16.706Z,13.00
2018-01-15T08:10:43.318Z,13.73
2018-01-15T08:13:09.922Z,13.30
2018-01-15T08:15:36.522Z,13.00
2018-01-15T08:18:03.128Z,13.90
2018-01-15T08:20:29.727Z,12.77
2018-01-15T08:22:56.339Z,13.13
2018-01-15T08:25:22.935Z,13.30
2018-01-15T08:27:49.538Z,13.00
2018-01-15T08:30:16.140Z,13.00
2018-01-15T08:32:42.744Z,12.80
2018-01-15T08:35:09.349Z,12.47
2018-01-15T08:37:35.951Z,13.77
2018-01-15T08:40:02.560Z,12.90
2018-01-15T08:42:29.183Z,13.43
2018-01-15T08:44:55.784Z,12.80
2018-01-15T08:47:22.391Z,13.77
2018-01-15T08:49:48.992Z,13.00
2018-01-15T08:52:15.603Z,12.50
2018-01-15T08:54:43.251Z,13.00
2018-01-15T08:57:09.868Z,12.73
2018-01-15T08:59:37.047Z,13.20
2018-01-15T09:02:03.651Z,12.50
2018-01-15T09:04:30.266Z,12.37
2018-01-15T09:06:56.888Z,12.60
2018-01-15T09:09:23.480Z,14.33
2018-01-15T09:11:50.079Z,13.40
2018-01-15T09:14:16.689Z,13.90
2018-01-15T09:16:44.215Z,13.63
2018-01-15T09:19:10.812Z,13.70
2018-01-15T09:21:37.423Z,13.23
2018-01-15T09:24:04.023Z,14.00
2018-01-15T09:26:30.944Z,12.53
2018-01-15T09:28:57.549Z,13.67
2018-01-15T09:31:24.779Z,14.20
2018-01-15T09:33:51.383Z,12.37
2018-01-15T09:36:17.989Z,13.37
2018-01-15T09:38:44.600Z,12.77
2018-01-15T09:41:11.201Z,13.40
2018-01-15T09:43:37.829Z,14.10
2018-01-15T09:46:04.427Z,13.20
2018-01-15T09:48:31.068Z,12.53
2018-01-15T09:50:57.718Z,12.53
2018-01-15T09:53:24.308Z,12.73
2018-01-15T09:55:50.920Z,13.87
2018-01-15T09:58:17.524Z,12.07
2018-01-15T10:00:44.139Z,13.30
2018-01-15T10:03:10.739Z,13.50
2018-01-15T10:05:37.349Z,12.70
2018-01-15T10:08:03.944Z,13.57
2018-01-15T10:10:30.556Z,13.80
2018-01-15T10:12:57.151Z,12.37
2018-01-15T10:15:23.756Z,12.63
2018-01-15T10:17:50.359Z,13.20
2018-01-15T10:20:16.958Z,12.90
2018-01-15T10:22:43.564Z,12.13
2018-01-15T10:25:10.163Z,13.00
2018-01-15T10:27:36.776Z,12.40
2018-01-15T10:30:03.383Z,12.30
2018-01-15T10:32:29.993Z,12.90
2018-01-15T10:34:56.595Z,12.47
2018-01-15T10:37:23.212Z,11.70
2018-01-15T10:39:49.820Z,12.83
2018-01-15T10:42:16.447Z,11.93
2018-01-15T10:44:43.035Z,12.43
2018-01-15T10:47:09.636Z,12.10
2018-01-15T10:49:36.241Z,12.90
2018-01-15T10:52:02.843Z,12.97
2018-01-15T10:54:29.443Z,12.50
2018-01-15T10:56:56.054Z,13.57
2018-01-15T10:59:22.655Z,13.40
2018-01-15T11:01:49.264Z,12.80
2018-01-15T11:04:15.868Z,13.10
2018-01-15T11:06:42.468Z,13.20
2018-01-15T11:09:09.073Z,13.33
2018-01-15T11:11:35.676Z,14.00
2018-01-15T11:14:02.292Z,13.27
2018-01-15T11:16:28.892Z,14.30
2018-01-15T11:18:55.496Z,13.93
2018-01-15T11:21:22.100Z,13.80
2018-01-15T11:23:48.699Z,13.47
2018-01-15T11:26:15.326Z,13.50
2018-01-15T11:28:41.914Z,14.90
2018-01-15T11:31:08.855Z,13.60
2018-01-15T11:33:35.467Z,12.43
2018-01-15T11:36:02.067Z,13.10
2018-01-15T11:38:28.680Z,14.50
2018-01-15T11:40:55.283Z,12.87
2018-01-15T11:43:21.887Z,13.03
2018-01-15T11:45:48.488Z,12.70
2018-01-15T11:48:15.438Z,14.63
2018-01-15T11:50:44.892Z,13.30
2018-01-15T11:53:11.491Z,13.93
2018-01-15T11:55:38.095Z,13.37
2018-01-15T11:58:04.695Z,13.93
2018-01-15T12:00:31.299Z,13.10
2018-01-15T12:02:57.903Z,13.00
2018-01-15T12:05:24.511Z,13.30
2018-01-15T12:07:51.155Z,13.40
2018-01-15T12:10:17.752Z,14.40
2018-01-15T12:12:44.368Z,13.77
2018-01-15T12:15:10.964Z,12.57
2018-01-15T12:17:37.571Z,12.77
2018-01-15T12:20:04.172Z,12.87
2018-01-15T12:22:30.776Z,13.00
2018-01-15T12:24:57.477Z,13.00
2018-01-15T12:27:24.059Z,13.63
2018-01-15T12:29:50.672Z,11.97
2018-01-15T12:32:17.290Z,13.23
2018-01-15T12:34:43.896Z,12.80
2018-01-15T12:37:10.496Z,12.30
2018-01-15T12:39:37.428Z,12.33
2018-01-15T12:42:04.032Z,12.23
2018-01-15T12:44:30.625Z,12.90
2018-01-15T12:46:57.231Z,12.63
2018-01-15T12:49:23.827Z,11.87
2018-01-15T12:51:50.448Z,12.50
2018-01-15T12:54:17.049Z,11.40
2018-01-15T12:56:43.828Z,10.70
2018-01-15T12:59:10.415Z,11.47
2018-01-15T13:01:37.024Z,11.10
2018-01-15T13:04:03.654Z,11.43
2018-01-15T13:06:36.051Z,11.60
2018-01-15T13:09:02.656Z,10.90
2018-01-15T13:11:29.256Z,11.57
2018-01-15T13:13:55.863Z,10.70
2018-01-15T13:16:22.463Z,10.53
2018-01-15T13:18:49.068Z,10.17
2018-01-15T13:21:15.673Z,10.63
2018-01-15T13:23:42.283Z,10.50
2018-01-15T13:26:08.927Z,10.33
2018-01-15T13:28:35.527Z,10.23
2018-01-15T13:31:02.135Z,10.63
2018-01-15T13:33:28.732Z,9.47
2018-01-15T13:35:55.343Z,9.60
2018-01-15T13:38:21.944Z,9.00
2018-01-15T13:40:48.540Z,8.40
2018-01-15T13:43:15.216Z,8.90
2018-01-15T13:45:41.820Z,8.77
2018-01-15T13:48:08.452Z,8.80
2018-01-15T13:50:35.056Z,8.30
2018-01-15T13:53:01.673Z,7.07
2018-01-15T13:55:28.271Z,8.63
2018-01-15T13:57:54.872Z,6.83
2018-01-15T14:00:21.467Z,6.27
2018-01-15T14:02:48.075Z,7.17
2018-01-15T14:05:14.681Z,6.90
2018-01-15T14:07:41.303Z,7.20
2018-01-15T14:10:07.896Z,7.67
2018-01-15T14:12:34.516Z,7.53
2018-01-15T14:15:01.119Z,8.53
2018-01-15T14:17:27.733Z,7.37
2018-01-15T14:19:54.377Z,8.13
2018-01-15T14:22:20.967Z,7.83
2018-01-15T14:24:47.611Z,8.20
2018-01-15T14:27:14.196Z,7.93
2018-01-15T14:29:40.799Z,8.37
2018-01-15T14:32:07.398Z,7.93
2018-01-15T14:34:33.983Z,7.00
2018-01-15T14:37:00.574Z,7.20
2018-01-15T14:39:27.185Z,7.13
2018-01-15T14:41:56.584Z,6.77
2018-01-15T14:44:23.416Z,7.00
2018-01-15T14:46:50.003Z,6.73
2018-01-15T14:49:16.600Z,7.20
2018-01-15T14:54:16.328Z,6.90
2018-01-15T14:56:42.923Z,6.83
2018-01-15T14:59:09.519Z,6.50
2018-01-15T15:01:36.123Z,6.63
2018-01-15T15:04:02.708Z,5.90
2018-01-15T15:06:29.303Z,6.50
2018-01-15T15:08:55.899Z,6.40
2018-01-15T15:11:22.527Z,6.70
2018-01-15T15:13:49.151Z,6.20
2018-01-15T15:16:15.732Z,6.30
2018-01-15T15:18:42.337Z,6.40
2018-01-15T15:21:08.927Z,7.47
2018-01-15T15:23:35.529Z,7.60
2018-01-15T15:26:02.214Z,7.60
2018-01-15T15:28:28.796Z,7.90
2018-01-15T15:30:55.392Z,7.20
2018-01-15T15:33:21.983Z,6.90
2018-01-15T15:35:48.831Z,7.20
2018-01-15T15:38:15.431Z,8.30
2018-01-15T15:40:42.026Z,7.90
2018-01-15T15:43:08.636Z,8.20
2018-01-15T15:45:35.226Z,8.10
2018-01-15T15:48:01.832Z,8.97
2018-01-15T15:50:28.429Z,8.23
2018-01-15T15:52:55.044Z,7.90
2018-01-15T15:55:21.644Z,7.23
2018-01-15T15:57:48.243Z,8.50
2018-01-15T16:00:15.576Z,8.50
2018-01-15T16:02:42.200Z,8.73
2018-01-15T16:05:08.803Z,7.40
2018-01-15T16:07:35.399Z,7.87
2018-01-15T16:10:02.041Z,7.27
2018-01-15T16:12:28.627Z,6.97
2018-01-15T16:14:55.225Z,6.03
2018-01-15T16:17:21.823Z,5.87
2018-01-15T16:19:48.443Z,5.37
2018-01-15T16:22:21.271Z,5.60
2018-01-15T16:24:47.873Z,5.80
2018-01-15T16:27:14.467Z,5.20
2018-01-15T16:29:41.067Z,4.97
2018-01-15T16:32:07.667Z,4.83
2018-01-15T16:34:34.256Z,4.70
2018-01-15T16:37:00.852Z,3.80
2018-01-15T16:39:27.452Z,4.20
2018-01-15T16:41:54.051Z,4.07
2018-01-15T16:44:20.647Z,3.90
2018-01-15T16:46:47.285Z,4.90
2018-01-15T16:49:13.872Z,3.80
2018-01-15T16:51:40.483Z,3.27
2018-01-15T16:54:07.072Z,3.20
2018-01-15T16:56:33.723Z,3.10
2018-01-15T16:59:00.272Z,2.60
2018-01-15T17:01:26.872Z,2.70
2018-01-15T17:03:53.492Z,2.47
2018-01-15T17:06:20.072Z,3.27
2018-01-15T17:08:46.683Z,7.90
2018-01-15T17:11:13.271Z,7.53
2018-01-15T17:13:40.111Z,3.60
2018-01-15T17:16:06.709Z,3.23
2018-01-15T17:18:33.299Z,2.40
2018-01-15T17:20:59.894Z,2.37
2018-01-15T17:23:26.483Z,1.90
2018-01-15T17:25:53.083Z,2.07
2018-01-15T17:28:19.680Z,1.90
2018-01-15T17:30:46.291Z,1.90
2018-01-15T17:33:12.876Z,2.17
2018-01-15T17:35:39.473Z,1.90
2018-01-15T17:38:06.075Z,1.90
2018-01-15T17:40:33.548Z,1.83
2018-01-15T17:43:00.143Z,1.63
2018-01-15T17:45:26.736Z,2.03
2018-01-15T17:47:53.348Z,1.73
2018-01-15T17:50:19.943Z,1.97
2018-01-15T17:52:46.534Z,2.20
2018-01-15T17:55:13.131Z,1.97
2018-01-15T17:57:39.728Z,2.10
2018-01-15T18:00:06.338Z,2.00
2018-01-15T18:02:32.941Z,1.63
2018-01-15T18:04:59.511Z,2.10
2018-01-15T18:07:26.164Z,1.60
2018-01-15T18:09:52.764Z,1.40
2018-01-15T18:12:19.409Z,1.60
2018-01-15T18:14:45.993Z,2.07
2018-01-15T18:17:12.585Z,2.00
2018-01-15T18:19:39.175Z,1.40
2018-01-15T18:22:05.808Z,1.30
2018-01-15T18:24:32.371Z,1.10
2018-01-15T18:26:58.964Z,1.20
2018-01-15T18:29:25.572Z,0.80
2018-01-15T18:31:52.163Z,1.43
2018-01-15T18:34:18.760Z,1.20
2018-01-15T18:36:46.381Z,1.87
2018-01-15T18:39:13.032Z,2.20
2018-01-15T18:41:39.616Z,1.20
2018-01-15T18:44:06.215Z,1.50
2018-01-15T18:46:33.053Z,1.17
2018-01-15T18:48:59.644Z,1.37
2018-01-15T18:51:26.239Z,1.00
2018-01-15T18:53:52.840Z,1.10
2018-01-15T18:56:19.476Z,1.20
2018-01-15T18:58:46.075Z,1.00
2018-01-15T19:01:12.664Z,0.97
2018-01-15T19:03:39.267Z,0.80
2018-01-15T19:06:05.872Z,0.90
2018-01-15T19:08:32.463Z,1.10
2018-01-15T19:10:59.063Z,0.90
2018-01-15T19:13:25.660Z,0.60
2018-01-15T19:15:52.261Z,0.90
2018-01-15T19:18:18.875Z,1.80
2018-01-15T19:20:45.536Z,1.03
2018-01-15T19:23:12.159Z,0.80
2018-01-15T19:25:38.751Z,0.70
2018-01-15T19:28:05.348Z,0.70
2018-01-15T19:30:31.939Z,1.30
2018-01-15T19:32:58.535Z,0.60
2018-01-15T19:35:27.916Z,0.90
2018-01-15T19:37:54.530Z,1.40
2018-01-15T19:40:21.136Z,0.77
2018-01-15T19:42:47.748Z,0.90
2018-01-15T19:45:19.980Z,0.50
2018-01-15T19:47:53.184Z,1.47
2018-01-15T19:50:25.551Z,0.60
2018-01-15T19:52:58.892Z,0.80
2018-01-15T19:55:31.216Z,0.90
2018-01-15T19:58:03.345Z,0.70
2018-01-15T20:00:47.617Z,0.80
2018-01-15T20:03:19.941Z,0.50
2018-01-15T20:06:05.965Z,0.80
2018-01-15T20:08:52.412Z,0.87
2018-01-15T20:11:19.848Z,0.77
2018-01-15T20:13:46.463Z,0.60
2018-01-15T20:16:13.066Z,0.60
2018-01-15T20:18:39.669Z,0.60
2018-01-15T20:21:06.267Z,0.60
2018-01-15T20:23:32.854Z,1.20
2018-01-15T20:25:59.452Z,0.70
2018-01-15T20:28:27.007Z,0.70
2018-01-15T20:30:53.596Z,0.57
2018-01-15T20:33:20.200Z,0.67
2018-01-15T20:35:46.816Z,0.67
2018-01-15T20:38:13.416Z,0.60
2018-01-15T20:40:40.015Z,0.70
2018-01-15T20:43:06.603Z,0.70
2018-01-15T20:45:33.214Z,0.53
2018-01-15T20:47:59.843Z,0.60
2018-01-15T20:50:26.443Z,0.57
2018-01-15T20:52:53.043Z,0.60
2018-01-15T20:55:19.640Z,0.60
2018-01-15T20:57:46.267Z,0.80
2018-01-15T21:00:12.855Z,0.80
2018-01-15T21:02:39.479Z,1.00
2018-01-15T21:05:06.076Z,0.90
2018-01-15T21:07:32.680Z,0.87
2018-01-15T21:09:59.301Z,0.87
2018-01-15T21:12:25.896Z,0.70
2018-01-15T21:14:53.051Z,0.60
2018-01-15T21:17:19.639Z,0.70
2018-01-15T21:19:46.255Z,0.67
2018-01-15T21:22:12.855Z,0.60
2018-01-15T21:24:39.455Z,0.60
2018-01-15T21:27:06.084Z,0.80
2018-01-15T21:29:32.731Z,0.60
2018-01-15T21:31:59.324Z,0.60
2018-01-15T21:34:25.916Z,0.70
2018-01-15T21:36:52.511Z,0.60
2018-01-15T21:39:19.108Z,0.63
2018-01-15T21:41:45.712Z,0.70
2018-01-15T21:44:12.308Z,0.60
2018-01-15T21:46:42.168Z,0.67
2018-01-15T21:49:08.843Z,0.60
2018-01-15T21:51:35.436Z,0.70
2018-01-15T21:54:02.031Z,0.57
2018-01-15T21:56:28.620Z,0.50
2018-01-15T21:58:55.721Z,0.50
2018-01-15T22:01:22.312Z,0.60
2018-01-15T22:03:48.908Z,0.50
2018-01-15T22:06:15.550Z,1.40
2018-01-15T22:08:42.132Z,0.50
2018-01-15T22:11:08.762Z,0.50
2018-01-15T22:13:35.358Z,0.50
2018-01-15T22:16:04.300Z,0.50
2018-01-15T22:18:30.935Z,0.60
2018-01-15T22:20:57.530Z,0.50
2018-01-15T22:23:24.467Z,0.50
2018-01-15T22:25:51.067Z,0.60
2018-01-15T22:28:17.660Z,0.60
2018-01-15T22:30:44.253Z,0.70
2018-01-15T22:33:10.851Z,0.60
2018-01-15T22:35:37.455Z,0.60
2018-01-15T22:38:04.039Z,0.60
2018-01-15T22:40:30.639Z,0.50
2018-01-15T22:42:57.267Z,0.53
2018-01-15T22:45:23.865Z,0.60
2018-01-15T22:47:51.405Z,0.80
2018-01-15T22:50:17.995Z,0.83
2018-01-15T22:52:44.596Z,1.10
2018-01-15T22:55:11.190Z,0.80
2018-01-15T22:57:37.779Z,0.63
2018-01-15T23:00:04.372Z,0.60
2018-01-15T23:02:30.967Z,0.70
2018-01-15T23:04:57.594Z,0.60
2018-01-15T23:07:24.171Z,0.40
2018-01-15T23:09:50.772Z,0.60
2018-01-15T23:12:17.363Z,0.60
2018-01-15T23:14:43.954Z,0.50
2018-01-15T23:17:10.554Z,0.70
2018-01-15T23:19:37.155Z,0.80
2018-01-15T23:22:03.756Z,1.30
2018-01-15T23:24:30.343Z,2.30
2018-01-15T23:26:56.945Z,1.70
2018-01-15T23:29:23.535Z,2.97
2018-01-15T23:31:50.139Z,2.80
2018-01-15T23:34:16.751Z,1.87
2018-01-15T23:36:43.343Z,2.00
2018-01-15T23:39:09.935Z,2.33
2018-01-15T23:41:36.539Z,2.20
2018-01-15T23:44:03.127Z,2.50
2018-01-15T23:46:29.729Z,2.03
2018-01-15T23:48:56.315Z,2.30
2018-01-15T23:51:22.952Z,2.00
2018-01-15T23:53:49.548Z,2.07
2018-01-15T23:56:16.145Z,2.53
2018-01-15T23:58:42.736Z,2.40
